HCR Airport (Heber Valley) Information

FAA: HCR - ICAO: KHCR

HCR Airport Location

State Utah
County Wasatch
City Heber
HCR Airport is 1 mile south of Heber, UT.
Latitude 40-28-54.5000N
Longitude 111-25-43.7000W
Elevation 5,636ft

KHCR Airport METARs

METAR KHCR 280235Z AUTO 12004KT 10SM CLR 04/00 A3031 RMK AO2
Altimeter 30.31"
Temperature 4.0°C (39.2°F)
Wind 120° at 4KT
Clouds Skies are clear.
Visibility 10.0mi
Time observed: 2021-10-28T02:35:00Z

HCR Airport Details

Status Operational
Activation November 1947
Ownership Public
Usage Public
Chart SALT LAKE CITY
ATC on-site No
Beacon schedule sunset-sunrise
Beacon color clear green

HCR Airport Contacts

Owner HEBER CITY
Owner address 75 N. MAIN STREET, HEBER, UT 84032
Owner phone 435-654-0757
Manager MARK & ALINA PRINGLE
Manager address 614 N 18150 W, FAIRFIELD, UT 84013
Manager phone 801-766-0160

HCR Airport (Heber Valley) Radio Frequencies

HCR (Airport) Radio Frequencies

UNICOM 122.8
Common traffic advisory frequency (CTAF) 122.8